Oceanus Leader — 3FDF7 — position and weather

sailwx.info

Track history (hours):
 
Tides and Currents Weather Stations Pressure Air Temp Water Temp Dewpoint Dewpoint Depression Visibility Wind Speed Wind Dir Waves Ship Positions

Oceanus Leader

Last reported at 2018-Jun-19 12:47 UTC. Time now 2018-Jun-22 00:00 UTC.
Position N 37°53' E 015°42'.

Length 199 m; draft 9.2 m.

Type: Cargo ship. MMSI: 351026000.

Date/timePositionNaut miles runAvg speedWind from/ knotsBaromVisibWave heightAir tempDewpointWater temp
2018-Jun-19 12:47N 37°53' E 015°42'816.3
2018-Jun-19 12:19N 37°59' E 015°36'516.4
2018-Jun-19 12:00N 38°04' E 015°35'714.3
2018-Jun-19 11:30N 38°11' E 015°35'712.9
2018-Jun-19 10:56N 38°17' E 015°41'512.4
2018-Jun-19 10:30N 38°22' E 015°39'815.7
2018-Jun-19 10:00N 38°29' E 015°35'816.3
2018-Jun-19 09:30N 38°37' E 015°30'1016.4
2018-Jun-19 08:55N 38°46' E 015°25'12417.0
2018-Jun-19 01:36N 40°13' E 013°32'216.6
2018-Jun-19 01:31N 40°14' E 013°30'816.7
2018-Jun-19 01:00N 40°20' E 013°22'816.7
2018-Jun-19 00:31N 40°26' E 013°14'816.8
2018-Jun-19 00:01N 40°32' E 013°06'816.7
2018-Jun-18 23:31N 40°38' E 012°58'816.5
2018-Jun-18 23:00N 40°44' E 012°51'816.6
2018-Jun-18 22:31N 40°48' E 012°42'1916.8
2018-Jun-18 21:23N 41°02' E 012°25'717.2
2018-Jun-18 21:01N 41°07' E 012°19'81 5.3
2018-Jun-18 05:48N 42°08' E 011°08'715.0
2018-Jun-18 05:21N 42°09' E 010°59'514.8
2018-Jun-18 05:00N 42°09' E 010°52'814.6
2018-Jun-18 04:27N 42°10' E 010°41'714.5
2018-Jun-18 04:00N 42°11' E 010°33'1114.4
2018-Jun-18 03:15N 42°13' E 010°18'414.7
2018-Jun-18 02:58N 42°14' E 010°13'714.6
2018-Jun-18 02:29N 42°17' E 010°05'714.3
2018-Jun-18 02:00N 42°21' E 009°57'714.5
2018-Jun-18 01:30N 42°27' E 009°50'714.5
2018-Jun-18 01:00N 42°32' E 009°44'714.3
2018-Jun-18 00:29N 42°39' E 009°42'714.5
2018-Jun-18 00:00N 42°46' E 009°39'714.6
2018-Jun-17 23:30N 42°53' E 009°37'714.6
2018-Jun-17 23:00N 43°00' E 009°35'714.3
2018-Jun-17 22:30N 43°06' E 009°30'715.0
2018-Jun-17 22:00N 43°12' E 009°23'815.4
2018-Jun-17 21:30N 43°18' E 009°17'714.4
2018-Jun-17 21:00N 43°24' E 009°11'714.3
2018-Jun-17 20:30N 43°29' E 009°04'714.4
2018-Jun-17 20:00N 43°36' E 008°60'714.6
2018-Jun-17 19:30N 43°42' E 008°55'714.6
2018-Jun-17 19:00N 43°49' E 008°51'714.5
2018-Jun-17 18:30N 43°56' E 008°47'815.1
2018-Jun-17 18:00N 44°02' E 008°42'815.1
2018-Jun-17 17:30N 44°09' E 008°38'715.0
2018-Jun-17 17:00N 44°16' E 008°33'4 7.2
2018-Jun-17 16:30N 44°19' E 008°30'0 0.0
2018-Jun-17 15:59N 44°19' E 008°30'0 0.0
2018-Jun-17 15:29N 44°19' E 008°30'0 0.0
2018-Jun-17 14:59N 44°19' E 008°30'0 0.0
2018-Jun-17 14:29N 44°19' E 008°30'0 0.0
2018-Jun-17 13:59N 44°19' E 008°30'0 0.0
2018-Jun-17 13:29N 44°19' E 008°30'0 0.0
2018-Jun-17 12:59N 44°19' E 008°30'0 0.0
2018-Jun-17 12:29N 44°19' E 008°30'0 0.0
2018-Jun-17 11:59N 44°19' E 008°30'0 0.0
2018-Jun-17 11:29N 44°19' E 008°30'0 0.0
2018-Jun-17 10:56N 44°19' E 008°30'0 0.0
2018-Jun-17 10:29N 44°19' E 008°30'0 0.0
2018-Jun-17 09:59N 44°19' E 008°30'0 0.0
2018-Jun-17 09:29N 44°19' E 008°30'0 0.0
2018-Jun-17 08:56N 44°19' E 008°30'0 0.0
2018-Jun-17 08:29N 44°19' E 008°30'0 0.0
2018-Jun-17 07:59N 44°19' E 008°30'0 0.0
2018-Jun-17 07:29N 44°19' E 008°30'0 0.0
2018-Jun-17 06:59N 44°19' E 008°30'0 0.0
2018-Jun-17 06:29N 44°19' E 008°30'0 0.0
2018-Jun-17 05:59N 44°19' E 008°30'0 0.0
2018-Jun-17 05:29N 44°19' E 008°30'0 0.0
2018-Jun-17 04:59N 44°19' E 008°30'0 0.9
2018-Jun-17 04:30N 44°19' E 008°30'1 2.2
2018-Jun-17 04:00N 44°19' E 008°32'3 5.2
2018-Jun-17 03:30N 44°16' E 008°33'3 5.7
2018-Jun-17 03:00N 44°13' E 008°33'2 4.4
2018-Jun-17 02:30N 44°11' E 008°31'3 6.1
2018-Jun-17 02:00N 44°08' E 008°31'611.4
2018-Jun-17 01:30N 44°03' E 008°28'611.9
2018-Jun-17 01:00N 43°59' E 008°23'611.8
2018-Jun-17 00:30N 43°54' E 008°17'611.7
2018-Jun-17 00:00N 43°50' E 008°12'611.7
2018-Jun-16 23:30N 43°46' E 008°06'611.8
2018-Jun-16 23:00N 43°41' E 008°01'612.0
2018-Jun-16 22:30N 43°37' E 007°56'612.3
2018-Jun-16 22:00N 43°32' E 007°50'612.3
2018-Jun-16 21:30N 43°27' E 007°45'612.5
2018-Jun-16 21:00N 43°23' E 007°39'612.8
2018-Jun-16 20:30N 43°18' E 007°32'612.7
2018-Jun-16 20:00N 43°14' E 007°25'612.8
2018-Jun-16 19:30N 43°10' E 007°19'612.8
2018-Jun-16 19:00N 43°06' E 007°12'713.9
2018-Jun-16 18:31N 43°02' E 007°04'713.8
2018-Jun-16 18:00N 42°57' E 006°58'713.6
2018-Jun-16 17:30N 42°52' E 006°51'713.5
2018-Jun-16 17:00N 42°48' E 006°44'913.4
2018-Jun-16 16:21N 42°42' E 006°35'513.9
2018-Jun-16 16:00N 42°39' E 006°30'713.9
2018-Jun-16 15:30N 42°35' E 006°23'713.8
2018-Jun-16 15:00N 42°30' E 006°16'713.7
2018-Jun-16 14:29N 42°25' E 006°08'613.5
2018-Jun-16 14:00N 42°21' E 006°01'713.3
2018-Jun-16 13:28N 42°16' E 005°54'813.4
2018-Jun-16 12:54N 42°11' E 005°47'17815.4
2018-Jun-16 01:20N 40°15' E 002°47'516.4
2018-Jun-16 01:00N 40°11' E 002°42'816.3
2018-Jun-16 00:30N 40°06' E 002°34'7016.4
2018-Jun-15 20:14N 39°20' E 001°25'416.5
2018-Jun-15 20:00N 39°18' E 001°21'816.7
2018-Jun-15 19:30N 39°12' E 001°13'917.0
2018-Jun-15 19:00N 39°07' E 001°05'816.9
2018-Jun-15 18:30N 39°01' E 000°56'916.7
2018-Jun-15 17:57N 38°55' E 000°48'716.8
2018-Jun-15 17:30N 38°50' E 000°40'816.9
2018-Jun-15 17:00N 38°45' E 000°32'816.5
2018-Jun-15 16:30N 38°39' E 000°25'816.4
2018-Jun-15 16:00N 38°32' E 000°19'816.4
2018-Jun-15 15:30N 38°25' E 000°13'817.1
2018-Jun-15 15:00N 38°18' E 000°07'918.7
2018-Jun-15 14:30N 38°10' E 000°00'917.7
2018-Jun-15 14:00N 38°03' W 000°06'816.3
2018-Jun-15 13:30N 37°56' W 000°11'916.4
2018-Jun-15 12:58N 37°48' W 000°17'816.3
2018-Jun-15 12:30N 37°42' W 000°22'816.4
2018-Jun-15 12:00N 37°35' W 000°28'916.7
2018-Jun-15 11:29N 37°29' W 000°35'816.7
2018-Jun-15 11:00N 37°24' W 000°43'816.2
2018-Jun-15 10:30N 37°18' W 000°51'816.3
2018-Jun-15 10:00N 37°13' W 000°59'21216.1
2018-Jun-14 20:51N 36°01' W 005°08'720.2
2018-Jun-14 20:30N 35°60' W 005°16'1020.2
2018-Jun-14 20:00N 35°57' W 005°28'8216.9
2018-Jun-14 15:10N 36°04' W 007°09'516.3
2018-Jun-14 14:53N 36°06' W 007°15'917.3
2018-Jun-14 14:22N 36°08' W 007°25'716.4
2018-Jun-14 13:57N 36°10' W 007°33'3216.5
2018-Jun-14 12:01N 36°19' W 008°12'216.4
2018-Jun-14 11:53N 36°19' W 008°14'616.5
2018-Jun-14 11:30N 36°21' W 008°22'1316.5
2018-Jun-14 10:45N 36°23' W 008°37'2116.2
2018-Jun-14 09:25N 36°30' W 009°02'816.3
2018-Jun-14 08:56N 36°33' W 009°12'2415.8
2018-Jun-14 07:25N 36°48' W 009°34'4016.1
2018-Jun-14 04:55N 37°28' W 009°32'716.4
2018-Jun-14 04:29N 37°35' W 009°31'816.2
2018-Jun-14 04:00N 37°43' W 009°30'816.4
2018-Jun-14 03:30N 37°51' W 009°29'816.7
2018-Jun-14 03:00N 37°60' W 009°28'816.2
2018-Jun-14 02:30N 38°07' W 009°22'816.6
2018-Jun-14 02:01N 38°13' W 009°15'816.6
2018-Jun-14 01:30N 38°19' W 009°08'815.8
2018-Jun-14 01:00N 38°25' W 009°01'510.4
2018-Jun-14 00:30N 38°28' W 008°57'4 8.0
2018-Jun-14 00:00N 38°31' W 008°53'0 1.0
2018-Jun-13 23:30N 38°31' W 008°52'0 0.0
2018-Jun-13 23:00N 38°31' W 008°52'0 0.0
2018-Jun-13 22:30N 38°31' W 008°52'0 0.0
2018-Jun-13 22:00N 38°31' W 008°52'0 0.0
2018-Jun-13 21:24N 38°31' W 008°52'0 0.0
2018-Jun-13 21:00N 38°31' W 008°52'0 0.0
2018-Jun-13 20:30N 38°31' W 008°52'0 0.0
2018-Jun-13 20:00N 38°31' W 008°52'0 0.0
2018-Jun-13 19:30N 38°31' W 008°52'0 0.0
2018-Jun-13 19:00N 38°31' W 008°52'0 0.0
2018-Jun-13 18:30N 38°31' W 008°52'0 0.0
2018-Jun-13 18:00N 38°31' W 008°52'0 0.0
2018-Jun-13 17:30N 38°31' W 008°52'0 0.0
2018-Jun-13 17:00N 38°31' W 008°52'0 0.0
2018-Jun-13 16:30N 38°31' W 008°52'0 0.0
2018-Jun-13 16:00N 38°31' W 008°52'0 0.0
2018-Jun-13 15:30N 38°31' W 008°52'0 0.0
2018-Jun-13 15:00N 38°31' W 008°52'0 0.0
2018-Jun-13 14:30N 38°31' W 008°52'0 0.0
2018-Jun-13 14:00N 38°31' W 008°52'0 0.0
2018-Jun-13 13:27N 38°31' W 008°52'0 0.0
2018-Jun-13 13:00N 38°31' W 008°52'1 2.3
2018-Jun-13 12:30N 38°31' W 008°53'510.7
2018-Jun-13 12:00N 38°27' W 008°58'510.7
2018-Jun-13 11:30N 38°24' W 009°04'714.5
2018-Jun-13 11:00N 38°21' W 009°12'510.5
2018-Jun-13 10:30N 38°20' W 009°19'510.2
2018-Jun-13 10:00N 38°20' W 009°25'510.3
2018-Jun-13 09:30N 38°20' W 009°32'611.1
2018-Jun-13 09:00N 38°20' W 009°39'4 7.6
2018-Jun-13 08:30N 38°22' W 009°43'3 6.1
2018-Jun-13 08:00N 38°24' W 009°46'4 7.9
2018-Jun-13 07:29N 38°20' W 009°47'5 9.2
2018-Jun-13 07:00N 38°20' W 009°53'4 9.1
2018-Jun-13 06:30N 38°20' W 009°59'5 9.3
2018-Jun-13 06:00N 38°24' W 010°01'510.3
2018-Jun-13 05:30N 38°29' W 010°03'510.2
2018-Jun-13 04:59N 38°34' W 010°04'510.2
2018-Jun-13 04:29N 38°39' W 010°05'510.4
2018-Jun-13 04:00N 38°45' W 010°05'610.5
2018-Jun-13 03:29N 38°50' W 010°05'510.5
2018-Jun-13 03:00N 38°55' W 010°06'510.4
2018-Jun-13 02:30N 39°00' W 010°06'510.1
2018-Jun-13 01:59N 39°05' W 010°06'510.2
2018-Jun-13 01:30N 39°10' W 010°06'510.2
2018-Jun-13 01:00N 39°16' W 010°06'55613.2
2018-Jun-11 06:53N 48°08' W 006°24'13915.8
2018-Jun-10 22:03N 49°41' W 003°45'117.4
2018-Jun-10 22:00N 49°41' W 003°44'917.4
2018-Jun-10 21:30N 49°46' W 003°33'917.1
2018-Jun-10 21:00N 49°49' W 003°21'816.9
2018-Jun-10 20:30N 49°52' W 003°09'816.5
2018-Jun-10 20:01N 49°56' W 002°57'816.0
2018-Jun-10 19:30N 50°00' W 002°47'815.3
2018-Jun-10 19:00N 50°03' W 002°35'714.7
2018-Jun-10 18:30N 50°05' W 002°24'1014.1
2018-Jun-10 17:50N 50°09' W 002°11'513.9
2018-Jun-10 17:30N 50°11' W 002°05'813.6
2018-Jun-10 16:55N 50°15' W 001°53'613.6
2018-Jun-10 16:29N 50°17' W 001°45'814.1
2018-Jun-10 15:55N 50°21' W 001°34'614.4
2018-Jun-10 15:30N 50°24' W 001°26'714.8
2018-Jun-10 15:00N 50°28' W 001°16'815.1
2018-Jun-10 14:30N 50°32' W 001°06'1111.5
2018-Jun-10 13:31N 50°42' W 000°59'713.4
2018-Jun-10 13:01N 50°46' W 001°08'713.0
2018-Jun-10 12:30N 50°47' W 001°18'4 8.7
2018-Jun-10 12:00N 50°51' W 001°20'3 6.4
2018-Jun-10 11:30N 50°53' W 001°24'0 0.0
2018-Jun-10 10:58N 50°53' W 001°24'0 0.0
2018-Jun-10 10:28N 50°53' W 001°24'0 0.0
2018-Jun-10 09:58N 50°53' W 001°24'0 0.0
2018-Jun-10 09:28N 50°53' W 001°24'0 0.0
2018-Jun-10 08:58N 50°53' W 001°24'0 0.0
2018-Jun-10 08:28N 50°53' W 001°24'0 0.0
2018-Jun-10 07:58N 50°53' W 001°24'0 0.0
2018-Jun-10 07:28N 50°53' W 001°24'0 0.0
2018-Jun-10 06:58N 50°53' W 001°24'0 0.0
2018-Jun-10 06:28N 50°53' W 001°24'0 0.0
2018-Jun-10 05:58N 50°53' W 001°24'0 0.0
2018-Jun-10 05:28N 50°53' W 001°24'0 0.0
2018-Jun-10 04:58N 50°53' W 001°24'0 0.0
2018-Jun-10 04:28N 50°53' W 001°24'0 0.0
2018-Jun-10 03:58N 50°53' W 001°24'0 0.0
2018-Jun-10 03:28N 50°53' W 001°24'0 0.0
2018-Jun-10 02:58N 50°53' W 001°24'0 0.0
2018-Jun-10 02:28N 50°53' W 001°24'0 0.0
2018-Jun-10 01:58N 50°53' W 001°24'0 0.0
2018-Jun-10 01:28N 50°53' W 001°24'0 0.0
2018-Jun-10 00:58N 50°53' W 001°24'0 0.0
2018-Jun-10 00:28N 50°53' W 001°24'0 0.0
2018-Jun-09 23:58N 50°53' W 001°24'0 0.0
2018-Jun-09 23:28N 50°53' W 001°24'0 0.0
2018-Jun-09 22:58N 50°53' W 001°24'0 0.0
2018-Jun-09 22:28N 50°53' W 001°24'0 0.0
2018-Jun-09 21:58N 50°53' W 001°24'0 0.0
2018-Jun-09 21:28N 50°53' W 001°24'0 0.0
2018-Jun-09 20:58N 50°53' W 001°24'0 0.0
2018-Jun-09 20:28N 50°53' W 001°24'0 0.0
2018-Jun-09 19:58N 50°53' W 001°24'0 0.0
2018-Jun-09 19:28N 50°53' W 001°24'0 0.0
2018-Jun-09 18:55N 50°53' W 001°24'0 0.0
2018-Jun-09 18:28N 50°53' W 001°24'0 0.0
2018-Jun-09 17:58N 50°53' W 001°24'0 0.0
2018-Jun-09 17:28N 50°53' W 001°24'0 0.0
2018-Jun-09 16:58N 50°53' W 001°24'0 0.0
2018-Jun-09 16:28N 50°53' W 001°24'0 0.0
2018-Jun-09 15:55N 50°53' W 001°24'0 0.0
2018-Jun-09 14:55N 50°53' W 001°24'0 0.0
2018-Jun-09 14:28N 50°53' W 001°24'0 0.0
2018-Jun-09 13:58N 50°53' W 001°24'0 0.0
2018-Jun-09 13:28N 50°53' W 001°24'0 0.0
2018-Jun-09 12:58N 50°53' W 001°24'  
Track history (hours):
 
Tides and Currents Weather Stations Pressure Air Temp Water Temp Dewpoint Dewpoint Depression Visibility Wind Speed Wind Dir Waves Ship Positions

Oceanus Leader

Last reported at 2018-Jun-19 12:47 UTC. Time now 2018-Jun-22 00:00 UTC.
Position N 37°53' E 015°42'.

Length 199 m; draft 9.2 m.

Type: Cargo ship. MMSI: 351026000.

Date/timePositionNaut miles runAvg speedWind from/ knotsBaromVisibWave heightAir tempDewpointWater temp
2018-Jun-19 12:47N 37°53' E 015°42'816.3
2018-Jun-19 12:19N 37°59' E 015°36'516.4
2018-Jun-19 12:00N 38°04' E 015°35'714.3
2018-Jun-19 11:30N 38°11' E 015°35'712.9
2018-Jun-19 10:56N 38°17' E 015°41'512.4
2018-Jun-19 10:30N 38°22' E 015°39'815.7
2018-Jun-19 10:00N 38°29' E 015°35'816.3
2018-Jun-19 09:30N 38°37' E 015°30'1016.4
2018-Jun-19 08:55N 38°46' E 015°25'12417.0
2018-Jun-19 01:36N 40°13' E 013°32'216.6
2018-Jun-19 01:31N 40°14' E 013°30'816.7
2018-Jun-19 01:00N 40°20' E 013°22'816.7
2018-Jun-19 00:31N 40°26' E 013°14'816.8
2018-Jun-19 00:01N 40°32' E 013°06'816.7
2018-Jun-18 23:31N 40°38' E 012°58'816.5
2018-Jun-18 23:00N 40°44' E 012°51'816.6
2018-Jun-18 22:31N 40°48' E 012°42'1916.8
2018-Jun-18 21:23N 41°02' E 012°25'717.2
2018-Jun-18 21:01N 41°07' E 012°19'81 5.3
2018-Jun-18 05:48N 42°08' E 011°08'715.0
2018-Jun-18 05:21N 42°09' E 010°59'514.8
2018-Jun-18 05:00N 42°09' E 010°52'814.6
2018-Jun-18 04:27N 42°10' E 010°41'714.5
2018-Jun-18 04:00N 42°11' E 010°33'1114.4
2018-Jun-18 03:15N 42°13' E 010°18'414.7
2018-Jun-18 02:58N 42°14' E 010°13'714.6
2018-Jun-18 02:29N 42°17' E 010°05'714.3
2018-Jun-18 02:00N 42°21' E 009°57'714.5
2018-Jun-18 01:30N 42°27' E 009°50'714.5
2018-Jun-18 01:00N 42°32' E 009°44'714.3
2018-Jun-18 00:29N 42°39' E 009°42'714.5
2018-Jun-18 00:00N 42°46' E 009°39'714.6
2018-Jun-17 23:30N 42°53' E 009°37'714.6
2018-Jun-17 23:00N 43°00' E 009°35'714.3
2018-Jun-17 22:30N 43°06' E 009°30'715.0
2018-Jun-17 22:00N 43°12' E 009°23'815.4
2018-Jun-17 21:30N 43°18' E 009°17'714.4
2018-Jun-17 21:00N 43°24' E 009°11'714.3
2018-Jun-17 20:30N 43°29' E 009°04'714.4
2018-Jun-17 20:00N 43°36' E 008°60'714.6
2018-Jun-17 19:30N 43°42' E 008°55'714.6
2018-Jun-17 19:00N 43°49' E 008°51'714.5
2018-Jun-17 18:30N 43°56' E 008°47'815.1
2018-Jun-17 18:00N 44°02' E 008°42'815.1
2018-Jun-17 17:30N 44°09' E 008°38'715.0
2018-Jun-17 17:00N 44°16' E 008°33'4 7.2
2018-Jun-17 16:30N 44°19' E 008°30'0 0.0
2018-Jun-17 15:59N 44°19' E 008°30'0 0.0
2018-Jun-17 15:29N 44°19' E 008°30'0 0.0
2018-Jun-17 14:59N 44°19' E 008°30'0 0.0
2018-Jun-17 14:29N 44°19' E 008°30'0 0.0
2018-Jun-17 13:59N 44°19' E 008°30'0 0.0
2018-Jun-17 13:29N 44°19' E 008°30'0 0.0
2018-Jun-17 12:59N 44°19' E 008°30'0 0.0
2018-Jun-17 12:29N 44°19' E 008°30'0 0.0
2018-Jun-17 11:59N 44°19' E 008°30'0 0.0
2018-Jun-17 11:29N 44°19' E 008°30'0 0.0
2018-Jun-17 10:56N 44°19' E 008°30'0 0.0
2018-Jun-17 10:29N 44°19' E 008°30'0 0.0
2018-Jun-17 09:59N 44°19' E 008°30'0 0.0
2018-Jun-17 09:29N 44°19' E 008°30'0 0.0
2018-Jun-17 08:56N 44°19' E 008°30'0 0.0
2018-Jun-17 08:29N 44°19' E 008°30'0 0.0
2018-Jun-17 07:59N 44°19' E 008°30'0 0.0
2018-Jun-17 07:29N 44°19' E 008°30'0 0.0
2018-Jun-17 06:59N 44°19' E 008°30'0 0.0
2018-Jun-17 06:29N 44°19' E 008°30'0 0.0
2018-Jun-17 05:59N 44°19' E 008°30'0 0.0
2018-Jun-17 05:29N 44°19' E 008°30'0 0.0
2018-Jun-17 04:59N 44°19' E 008°30'0 0.9
2018-Jun-17 04:30N 44°19' E 008°30'1 2.2
2018-Jun-17 04:00N 44°19' E 008°32'3 5.2
2018-Jun-17 03:30N 44°16' E 008°33'3 5.7
2018-Jun-17 03:00N 44°13' E 008°33'2 4.4
2018-Jun-17 02:30N 44°11' E 008°31'3 6.1
2018-Jun-17 02:00N 44°08' E 008°31'611.4
2018-Jun-17 01:30N 44°03' E 008°28'611.9
2018-Jun-17 01:00N 43°59' E 008°23'611.8
2018-Jun-17 00:30N 43°54' E 008°17'611.7
2018-Jun-17 00:00N 43°50' E 008°12'611.7
2018-Jun-16 23:30N 43°46' E 008°06'611.8
2018-Jun-16 23:00N 43°41' E 008°01'612.0
2018-Jun-16 22:30N 43°37' E 007°56'612.3
2018-Jun-16 22:00N 43°32' E 007°50'612.3
2018-Jun-16 21:30N 43°27' E 007°45'612.5
2018-Jun-16 21:00N 43°23' E 007°39'612.8
2018-Jun-16 20:30N 43°18' E 007°32'612.7
2018-Jun-16 20:00N 43°14' E 007°25'612.8
2018-Jun-16 19:30N 43°10' E 007°19'612.8
2018-Jun-16 19:00N 43°06' E 007°12'713.9
2018-Jun-16 18:31N 43°02' E 007°04'713.8
2018-Jun-16 18:00N 42°57' E 006°58'713.6
2018-Jun-16 17:30N 42°52' E 006°51'713.5
2018-Jun-16 17:00N 42°48' E 006°44'913.4
2018-Jun-16 16:21N 42°42' E 006°35'513.9
2018-Jun-16 16:00N 42°39' E 006°30'713.9
2018-Jun-16 15:30N 42°35' E 006°23'713.8
2018-Jun-16 15:00N 42°30' E 006°16'713.7
2018-Jun-16 14:29N 42°25' E 006°08'613.5
2018-Jun-16 14:00N 42°21' E 006°01'713.3
2018-Jun-16 13:28N 42°16' E 005°54'813.4
2018-Jun-16 12:54N 42°11' E 005°47'17815.4
2018-Jun-16 01:20N 40°15' E 002°47'516.4
2018-Jun-16 01:00N 40°11' E 002°42'816.3
2018-Jun-16 00:30N 40°06' E 002°34'7016.4
2018-Jun-15 20:14N 39°20' E 001°25'416.5
2018-Jun-15 20:00N 39°18' E 001°21'816.7
2018-Jun-15 19:30N 39°12' E 001°13'917.0
2018-Jun-15 19:00N 39°07' E 001°05'816.9
2018-Jun-15 18:30N 39°01' E 000°56'916.7
2018-Jun-15 17:57N 38°55' E 000°48'716.8
2018-Jun-15 17:30N 38°50' E 000°40'816.9
2018-Jun-15 17:00N 38°45' E 000°32'816.5
2018-Jun-15 16:30N 38°39' E 000°25'816.4
2018-Jun-15 16:00N 38°32' E 000°19'816.4
2018-Jun-15 15:30N 38°25' E 000°13'817.1
2018-Jun-15 15:00N 38°18' E 000°07'918.7
2018-Jun-15 14:30N 38°10' E 000°00'917.7
2018-Jun-15 14:00N 38°03' W 000°06'816.3
2018-Jun-15 13:30N 37°56' W 000°11'916.4
2018-Jun-15 12:58N 37°48' W 000°17'816.3
2018-Jun-15 12:30N 37°42' W 000°22'816.4
2018-Jun-15 12:00N 37°35' W 000°28'916.7
2018-Jun-15 11:29N 37°29' W 000°35'816.7
2018-Jun-15 11:00N 37°24' W 000°43'816.2
2018-Jun-15 10:30N 37°18' W 000°51'816.3
2018-Jun-15 10:00N 37°13' W 000°59'21216.1
2018-Jun-14 20:51N 36°01' W 005°08'720.2
2018-Jun-14 20:30N 35°60' W 005°16'1020.2
2018-Jun-14 20:00N 35°57' W 005°28'8216.9
2018-Jun-14 15:10N 36°04' W 007°09'516.3
2018-Jun-14 14:53N 36°06' W 007°15'917.3
2018-Jun-14 14:22N 36°08' W 007°25'716.4
2018-Jun-14 13:57N 36°10' W 007°33'3216.5
2018-Jun-14 12:01N 36°19' W 008°12'216.4
2018-Jun-14 11:53N 36°19' W 008°14'616.5
2018-Jun-14 11:30N 36°21' W 008°22'1316.5
2018-Jun-14 10:45N 36°23' W 008°37'2116.2
2018-Jun-14 09:25N 36°30' W 009°02'816.3
2018-Jun-14 08:56N 36°33' W 009°12'2415.8
2018-Jun-14 07:25N 36°48' W 009°34'4016.1
2018-Jun-14 04:55N 37°28' W 009°32'716.4
2018-Jun-14 04:29N 37°35' W 009°31'816.2
2018-Jun-14 04:00N 37°43' W 009°30'816.4
2018-Jun-14 03:30N 37°51' W 009°29'816.7
2018-Jun-14 03:00N 37°60' W 009°28'816.2
2018-Jun-14 02:30N 38°07' W 009°22'816.6
2018-Jun-14 02:01N 38°13' W 009°15'816.6
2018-Jun-14 01:30N 38°19' W 009°08'815.8
2018-Jun-14 01:00N 38°25' W 009°01'510.4
2018-Jun-14 00:30N 38°28' W 008°57'4 8.0
2018-Jun-14 00:00N 38°31' W 008°53'0 1.0
2018-Jun-13 23:30N 38°31' W 008°52'0 0.0
2018-Jun-13 23:00N 38°31' W 008°52'0 0.0
2018-Jun-13 22:30N 38°31' W 008°52'0 0.0
2018-Jun-13 22:00N 38°31' W 008°52'0 0.0
2018-Jun-13 21:24N 38°31' W 008°52'0 0.0
2018-Jun-13 21:00N 38°31' W 008°52'0 0.0
2018-Jun-13 20:30N 38°31' W 008°52'0 0.0
2018-Jun-13 20:00N 38°31' W 008°52'0 0.0
2018-Jun-13 19:30N 38°31' W 008°52'0 0.0
2018-Jun-13 19:00N 38°31' W 008°52'0 0.0
2018-Jun-13 18:30N 38°31' W 008°52'0 0.0
2018-Jun-13 18:00N 38°31' W 008°52'0 0.0
2018-Jun-13 17:30N 38°31' W 008°52'0 0.0
2018-Jun-13 17:00N 38°31' W 008°52'0 0.0
2018-Jun-13 16:30N 38°31' W 008°52'0 0.0
2018-Jun-13 16:00N 38°31' W 008°52'0 0.0
2018-Jun-13 15:30N 38°31' W 008°52'0 0.0
2018-Jun-13 15:00N 38°31' W 008°52'0 0.0
2018-Jun-13 14:30N 38°31' W 008°52'0 0.0
2018-Jun-13 14:00N 38°31' W 008°52'0 0.0
2018-Jun-13 13:27N 38°31' W 008°52'0 0.0
2018-Jun-13 13:00N 38°31' W 008°52'1 2.3
2018-Jun-13 12:30N 38°31' W 008°53'510.7
2018-Jun-13 12:00N 38°27' W 008°58'510.7
2018-Jun-13 11:30N 38°24' W 009°04'714.5
2018-Jun-13 11:00N 38°21' W 009°12'510.5
2018-Jun-13 10:30N 38°20' W 009°19'510.2
2018-Jun-13 10:00N 38°20' W 009°25'510.3
2018-Jun-13 09:30N 38°20' W 009°32'611.1
2018-Jun-13 09:00N 38°20' W 009°39'4 7.6
2018-Jun-13 08:30N 38°22' W 009°43'3 6.1
2018-Jun-13 08:00N 38°24' W 009°46'4 7.9
2018-Jun-13 07:29N 38°20' W 009°47'5 9.2
2018-Jun-13 07:00N 38°20' W 009°53'4 9.1
2018-Jun-13 06:30N 38°20' W 009°59'5 9.3
2018-Jun-13 06:00N 38°24' W 010°01'510.3
2018-Jun-13 05:30N 38°29' W 010°03'510.2
2018-Jun-13 04:59N 38°34' W 010°04'510.2
2018-Jun-13 04:29N 38°39' W 010°05'510.4
2018-Jun-13 04:00N 38°45' W 010°05'610.5
2018-Jun-13 03:29N 38°50' W 010°05'510.5
2018-Jun-13 03:00N 38°55' W 010°06'510.4
2018-Jun-13 02:30N 39°00' W 010°06'510.1
2018-Jun-13 01:59N 39°05' W 010°06'510.2
2018-Jun-13 01:30N 39°10' W 010°06'510.2
2018-Jun-13 01:00N 39°16' W 010°06'55613.2
2018-Jun-11 06:53N 48°08' W 006°24'13915.8
2018-Jun-10 22:03N 49°41' W 003°45'117.4
2018-Jun-10 22:00N 49°41' W 003°44'917.4
2018-Jun-10 21:30N 49°46' W 003°33'917.1
2018-Jun-10 21:00N 49°49' W 003°21'816.9
2018-Jun-10 20:30N 49°52' W 003°09'816.5
2018-Jun-10 20:01N 49°56' W 002°57'816.0
2018-Jun-10 19:30N 50°00' W 002°47'815.3
2018-Jun-10 19:00N 50°03' W 002°35'714.7
2018-Jun-10 18:30N 50°05' W 002°24'1014.1
2018-Jun-10 17:50N 50°09' W 002°11'513.9
2018-Jun-10 17:30N 50°11' W 002°05'813.6
2018-Jun-10 16:55N 50°15' W 001°53'613.6
2018-Jun-10 16:29N 50°17' W 001°45'814.1
2018-Jun-10 15:55N 50°21' W 001°34'614.4
2018-Jun-10 15:30N 50°24' W 001°26'714.8
2018-Jun-10 15:00N 50°28' W 001°16'815.1
2018-Jun-10 14:30N 50°32' W 001°06'1111.5
2018-Jun-10 13:31N 50°42' W 000°59'713.4
2018-Jun-10 13:01N 50°46' W 001°08'713.0
2018-Jun-10 12:30N 50°47' W 001°18'4 8.7
2018-Jun-10 12:00N 50°51' W 001°20'3 6.4
2018-Jun-10 11:30N 50°53' W 001°24'0 0.0
2018-Jun-10 10:58N 50°53' W 001°24'0 0.0
2018-Jun-10 10:28N 50°53' W 001°24'0 0.0
2018-Jun-10 09:58N 50°53' W 001°24'0 0.0
2018-Jun-10 09:28N 50°53' W 001°24'0 0.0
2018-Jun-10 08:58N 50°53' W 001°24'0 0.0
2018-Jun-10 08:28N 50°53' W 001°24'0 0.0
2018-Jun-10 07:58N 50°53' W 001°24'0 0.0
2018-Jun-10 07:28N 50°53' W 001°24'0 0.0
2018-Jun-10 06:58N 50°53' W 001°24'0 0.0
2018-Jun-10 06:28N 50°53' W 001°24'0 0.0
2018-Jun-10 05:58N 50°53' W 001°24'0 0.0
2018-Jun-10 05:28N 50°53' W 001°24'0 0.0
2018-Jun-10 04:58N 50°53' W 001°24'0 0.0
2018-Jun-10 04:28N 50°53' W 001°24'0 0.0
2018-Jun-10 03:58N 50°53' W 001°24'0 0.0
2018-Jun-10 03:28N 50°53' W 001°24'0 0.0
2018-Jun-10 02:58N 50°53' W 001°24'0 0.0
2018-Jun-10 02:28N 50°53' W 001°24'0 0.0
2018-Jun-10 01:58N 50°53' W 001°24'0 0.0
2018-Jun-10 01:28N 50°53' W 001°24'0 0.0
2018-Jun-10 00:58N 50°53' W 001°24'0 0.0
2018-Jun-10 00:28N 50°53' W 001°24'0 0.0
2018-Jun-09 23:58N 50°53' W 001°24'0 0.0
2018-Jun-09 23:28N 50°53' W 001°24'0 0.0
2018-Jun-09 22:58N 50°53' W 001°24'0 0.0
2018-Jun-09 22:28N 50°53' W 001°24'0 0.0
2018-Jun-09 21:58N 50°53' W 001°24'0 0.0
2018-Jun-09 21:28N 50°53' W 001°24'0 0.0
2018-Jun-09 20:58N 50°53' W 001°24'0 0.0
2018-Jun-09 20:28N 50°53' W 001°24'0 0.0
2018-Jun-09 19:58N 50°53' W 001°24'0 0.0
2018-Jun-09 19:28N 50°53' W 001°24'0 0.0
2018-Jun-09 18:55N 50°53' W 001°24'0 0.0
2018-Jun-09 18:28N 50°53' W 001°24'0 0.0
2018-Jun-09 17:58N 50°53' W 001°24'0 0.0
2018-Jun-09 17:28N 50°53' W 001°24'0 0.0
2018-Jun-09 16:58N 50°53' W 001°24'0 0.0
2018-Jun-09 16:28N 50°53' W 001°24'0 0.0
2018-Jun-09 15:55N 50°53' W 001°24'0 0.0
2018-Jun-09 14:55N 50°53' W 001°24'0 0.0
2018-Jun-09 14:28N 50°53' W 001°24'0 0.0
2018-Jun-09 13:58N 50°53' W 001°24'0 0.0
2018-Jun-09 13:28N 50°53' W 001°24'0 0.0
2018-Jun-09 12:58N 50°53' W 001°24'  

Dump ship's entire track history